Marshall, MN

5:59 PM CDT on April 23, 2017 (GMT -0500)
Marshall Municipal-Ryan

Weather History for KMML - May, 2013

Change the Weather History Date:

Sunday, May 19, 2013

  Actual Average Record
Temperature  
Mean Temperature 68 °F -  
Max Temperature 75 °F 72 °F 93 °F (1970)
Min Temperature 62 °F 48 °F 8 °F (2002)
Cooling Degree Days 4    
Growing Degree Days 18 (Base 50)    
Moisture  
Dew Point 61 °F    
Average Humidity 80    
Maximum Humidity 94    
Minimum Humidity 61    
Precipitation  
Precipitation 0.32 in - - ()
Sea Level Pressure  
Sea Level Pressure 29.63 in    
Wind  
Wind Speed 11 mph (SSE)    
Max Wind Speed 24 mph    
Max Gust Speed 33 mph    
Visibility 9 miles    
Events Thunderstorm    
Averages and records for this station are not official NWS values.
T = Trace of Precipitation, MM = Missing Value Source: NWS Daily Summary

Daily Weather History Graph

Daily Weather History Graph

Search for Another Location

Airport or City:

Trip Planner

Search our weather history database for the weather conditions in past years. The results will help you decide how hot, cold, wet, or windy it might be!

Date:

Astronomy

May. 19, 2013 Rise Set
Actual Time 5:51 AM CDT 8:48 PM CDT
Civil Twilight 5:17 AM CDT 9:23 PM CDT
Nautical Twilight 4:33 AM CDT 10:07 PM CDT
Astronomical Twilight 3:41 AM CDT 10:59 PM CDT
Moon 2:40 PM CDT (5/19) 2:29 AM CDT (5/19)
Length of Visible Light 16h 05m
Length of Day
14h 57m
Waxing Gibbous, 65% of the Moon is Illuminated
May 19
Waxing Gibbous
May 24
Full
May 31
Last Quarter
Jun 8
New
Jun 16
First Quarter

Hourly Weather History & Observations

Time (CDT) Temp. Dew Point Humidity Pressure Visibility Wind Dir Wind Speed Gust Speed Precip Events Conditions
12:15 AM 71.6 °F 60.8 °F 69% 29.71 in 10.0 mi SE 11.5 mph - N/A   Mostly Cloudy
12:35 AM 71.6 °F 60.8 °F 69% 29.71 in 10.0 mi SE 12.7 mph - N/A   Overcast
12:55 AM 69.8 °F 60.8 °F 73% 29.71 in 10.0 mi SE 10.4 mph - N/A   Mostly Cloudy
1:15 AM 69.8 °F 60.8 °F 73% 29.71 in 10.0 mi SSE 12.7 mph - N/A   Scattered Clouds
1:35 AM 71.6 °F 60.8 °F 69% 29.69 in 10.0 mi SE 12.7 mph - N/A   Mostly Cloudy
1:55 AM 71.6 °F 60.8 °F 69% 29.69 in 10.0 mi SSE 13.8 mph - N/A   Scattered Clouds
2:15 AM 71.6 °F 60.8 °F 69% 29.68 in 10.0 mi SE 15.0 mph 20.7 mph N/A   Mostly Cloudy
2:35 AM 71.6 °F 60.8 °F 69% 29.68 in 10.0 mi SE 12.7 mph - N/A   Mostly Cloudy
2:55 AM 71.6 °F 60.8 °F 69% 29.69 in 10.0 mi SSE 17.3 mph 23.0 mph N/A   Mostly Cloudy
3:15 AM 69.8 °F 57.2 °F 64% 29.70 in 10.0 mi SW 21.9 mph 33.4 mph N/A Thunderstorm Overcast
3:35 AM 64.4 °F 59.0 °F 83% 29.69 in 10.0 mi SW 9.2 mph - 0.19 in Thunderstorm Thunderstorm
3:55 AM 64.4 °F 59.0 °F 83% 29.70 in 10.0 mi SSE 5.8 mph - 0.20 in Thunderstorm Mostly Cloudy
4:15 AM 62.6 °F 59.0 °F 88% 29.68 in 10.0 mi ESE 6.9 mph - N/A   Partly Cloudy
4:35 AM 62.6 °F 59.0 °F 88% 29.66 in 10.0 mi East 5.8 mph - N/A   Mostly Cloudy
4:55 AM 62.6 °F 60.8 °F 94% 29.66 in 10.0 mi East 4.6 mph - N/A   Scattered Clouds
5:15 AM 62.6 °F 60.8 °F 94% 29.67 in 10.0 mi ESE 8.1 mph - N/A   Partly Cloudy
5:35 AM 62.6 °F 59.0 °F 88% 29.65 in 10.0 mi ESE 9.2 mph - N/A   Mostly Cloudy
5:55 AM 62.6 °F 59.0 °F 88% 29.62 in 10.0 mi East 8.1 mph - N/A   Overcast
6:15 AM 62.6 °F 59.0 °F 88% 29.58 in 10.0 mi ENE 10.4 mph - N/A   Scattered Clouds
6:35 AM 62.6 °F 59.0 °F 88% 29.57 in 10.0 mi ENE 8.1 mph - N/A   Mostly Cloudy
7:15 AM 64.4 °F 60.8 °F 88% 29.62 in 10.0 mi SSE 6.9 mph - N/A   Mostly Cloudy
7:35 AM 64.4 °F 60.8 °F 88% 29.64 in 10.0 mi SSE 11.5 mph - N/A   Mostly Cloudy
7:55 AM 64.4 °F 60.8 °F 88% 29.64 in 8.0 mi SE 8.1 mph - N/A   Partly Cloudy
8:15 AM 66.2 °F 60.8 °F 83% 29.64 in 10.0 mi SE 10.4 mph - N/A   Clear
8:35 AM 68.0 °F 62.6 °F 83% 29.64 in 10.0 mi SSE 11.5 mph - N/A   Clear
8:55 AM 69.8 °F 60.8 °F 73% 29.64 in 10.0 mi South 13.8 mph - N/A   Clear
9:15 AM 69.8 °F 60.8 °F 73% 29.64 in 10.0 mi South 18.4 mph 24.2 mph N/A   Clear
9:55 AM 71.6 °F 60.8 °F 69% 29.65 in 10.0 mi South 24.2 mph 32.2 mph N/A   Partly Cloudy
10:15 AM 71.6 °F 60.8 °F 69% 29.65 in 10.0 mi South 18.4 mph 23.0 mph N/A   Partly Cloudy
10:35 AM 73.4 °F 60.8 °F 65% 29.63 in 10.0 mi South 15.0 mph 19.6 mph N/A   Partly Cloudy
10:55 AM 73.4 °F 60.8 °F 65% 29.64 in 10.0 mi SSW 18.4 mph - N/A   Mostly Cloudy
11:15 AM 73.4 °F 60.8 °F 65% 29.64 in 10.0 mi SSW 20.7 mph - N/A   Mostly Cloudy
11:35 AM 75.2 °F 60.8 °F 61% 29.65 in 10.0 mi SSW 21.9 mph 25.3 mph N/A   Mostly Cloudy
11:55 AM 73.4 °F 62.6 °F 69% 29.65 in 10.0 mi SSW 19.6 mph 25.3 mph N/A   Mostly Cloudy
12:15 PM 71.6 °F 60.8 °F 69% 29.65 in 10.0 mi SSW 18.4 mph 23.0 mph N/A   Mostly Cloudy
12:35 PM 71.6 °F 60.8 °F 69% 29.65 in 10.0 mi SSW 15.0 mph - N/A   Overcast
12:55 PM 71.6 °F 60.8 °F 69% 29.63 in 10.0 mi SSW 17.3 mph - N/A   Scattered Clouds
1:15 PM 71.6 °F 60.8 °F 69% 29.61 in 10.0 mi SW 12.7 mph - N/A   Clear
1:35 PM 71.6 °F 60.8 °F 69% 29.61 in 10.0 mi SSW 11.5 mph - N/A   Scattered Clouds
2:15 PM 69.8 °F 60.8 °F 73% 29.63 in 10.0 mi South 10.4 mph - N/A   Partly Cloudy
2:35 PM 69.8 °F 62.6 °F 78% 29.64 in 10.0 mi South 8.1 mph - N/A   Partly Cloudy
2:55 PM 69.8 °F 62.6 °F 78% 29.64 in 8.0 mi SSW 10.4 mph - N/A   Clear
3:15 PM 68.0 °F 62.6 °F 83% 29.64 in 7.0 mi South 9.2 mph - 0.01 in   Mostly Cloudy
3:35 PM 68.0 °F 62.6 °F 83% 29.64 in 5.0 mi SSW 8.1 mph - 0.02 in   Mostly Cloudy
3:55 PM 68.0 °F 60.8 °F 78% 29.63 in 8.0 mi SW 11.5 mph - 0.03 in   Overcast
4:15 PM 66.2 °F 62.6 °F 88% 29.63 in 7.0 mi SW 9.2 mph - 0.02 in   Overcast
4:35 PM 66.2 °F 62.6 °F 88% 29.63 in 5.0 mi SW 9.2 mph - 0.05 in   Overcast
4:55 PM 66.2 °F 60.8 °F 83% 29.62 in 6.0 mi SW 5.8 mph - 0.08 in   Overcast
5:15 PM 66.2 °F 62.6 °F 88% 29.62 in 4.0 mi South 6.9 mph - 0.01 in   Overcast
5:35 PM 66.2 °F 62.6 °F 88% 29.62 in 5.0 mi South 5.8 mph - 0.01 in   Partly Cloudy
5:55 PM 66.2 °F 62.6 °F 88% 29.61 in 5.0 mi SSE 4.6 mph - 0.01 in   Clear
6:15 PM 68.0 °F 62.6 °F 83% 29.60 in 7.0 mi South 6.9 mph - N/A   Clear
6:35 PM 69.8 °F 62.6 °F 78% 29.57 in 9.0 mi East 5.8 mph - N/A   Clear
6:55 PM 68.0 °F 62.6 °F 83% 29.54 in 9.0 mi ENE 6.9 mph - N/A   Clear
7:15 PM 68.0 °F 60.8 °F 78% 29.52 in 9.0 mi ENE 11.5 mph - N/A   Clear
7:35 PM 68.0 °F 60.8 °F 78% 29.56 in 10.0 mi SE 9.2 mph - N/A   Partly Cloudy
7:55 PM 68.0 °F 60.8 °F 78% 29.59 in 10.0 mi SSE 10.4 mph - N/A   Partly Cloudy
8:15 PM 66.2 °F 60.8 °F 83% 29.58 in 10.0 mi SE 10.4 mph - N/A   Partly Cloudy
8:35 PM 66.2 °F 60.8 °F 83% 29.59 in 10.0 mi SSE 6.9 mph - N/A   Partly Cloudy
8:55 PM 66.2 °F 60.8 °F 83% 29.58 in 10.0 mi Calm Calm - N/A   Clear
9:15 PM 64.4 °F 60.8 °F 88% 29.57 in 10.0 mi ENE 8.1 mph - N/A   Clear
9:35 PM 64.4 °F 60.8 °F 88% 29.57 in 10.0 mi SE 4.6 mph - N/A   Scattered Clouds
9:55 PM 64.4 °F 60.8 °F 88% 29.56 in 9.0 mi ENE 5.8 mph - N/A   Scattered Clouds
10:15 PM 64.4 °F 60.8 °F 88% 29.55 in 7.0 mi NE 4.6 mph - N/A   Partly Cloudy
10:35 PM 62.6 °F 60.8 °F 94% 29.54 in 5.0 mi NE 6.9 mph - N/A   Partly Cloudy
10:55 PM 62.6 °F 60.8 °F 94% 29.55 in 8.0 mi NE 3.5 mph - N/A   Clear
11:15 PM 62.6 °F 59.0 °F 88% 29.55 in 8.0 mi NE 3.5 mph - N/A   Clear
11:35 PM 62.6 °F 60.8 °F 94% 29.55 in 7.0 mi Calm Calm - N/A   Clear
11:55 PM 62.6 °F 59.0 °F 88% 29.55 in 5.0 mi SE 10.4 mph - N/A   Clear